Time;durP1;ratioP1;P1;durP2;ratioP2;P2;SDS_P1;SDS_P2;PMS_P1;PMS_P2;Temp;Humidity;BMP_temperature;BMP_pressure;BME280_temperature;BME280_humidity;BME280_pressure;Samples;Min_cycle;Max_cycle;Signal;HPM_P1;HPM_P2
2021/12/03 00:01:24;;;;;;;;;5.25;4.75;;;;;1.85;91.33;100938.13;5064125;28;11471;-68
2021/12/03 00:03:51;;;;;;;;;4.50;4.50;;;;;1.80;91.28;100940.34;5073297;28;11466;-70
2021/12/03 00:06:18;;;;;;;;;3.75;3.50;;;;;1.84;91.40;100932.91;5073139;28;11459;-70
2021/12/03 00:08:45;;;;;;;;;4.00;4.00;;;;;1.79;90.98;100930.63;5071294;28;11417;-69
2021/12/03 00:11:13;;;;;;;;;4.75;4.75;;;;;1.79;91.24;100927.97;5072969;28;11420;-71
2021/12/03 00:13:40;;;;;;;;;4.75;4.00;;;;;1.82;91.28;100930.38;5070908;28;11509;-70
2021/12/03 00:16:07;;;;;;;;;5.75;4.00;;;;;1.81;91.28;100930.50;5072993;28;11549;-70
2021/12/03 00:18:35;;;;;;;;;6.75;5.50;;;;;1.73;91.04;100919.59;5072668;28;11459;-71
2021/12/03 00:21:06;;;;;;;;;2.50;2.50;;;;;1.72;91.17;100921.44;5072493;28;11439;-70
2021/12/03 00:23:33;;;;;;;;;4.00;3.00;;;;;1.74;91.05;100927.50;5061716;28;11436;-71
2021/12/03 00:26:00;;;;;;;;;4.50;3.50;;;;;1.71;90.97;100933.09;5063099;28;11494;-70
2021/12/03 00:28:29;;;;;;;;;3.75;3.75;;;;;1.73;91.16;100943.63;5065012;28;11425;-69
2021/12/03 00:30:56;;;;;;;;;6.50;2.00;;;;;1.77;91.65;100929.91;5070423;28;11459;-70
2021/12/03 00:33:23;;;;;;;;;3.00;3.00;;;;;1.75;91.32;100928.38;5072459;28;11434;-70
2021/12/03 00:35:51;;;;;;;;;4.00;3.00;;;;;1.75;91.51;100926.53;5060950;28;11563;-69
2021/12/03 00:38:18;;;;;;;;;4.75;4.75;;;;;1.72;91.57;100920.59;5052285;28;11421;-71
2021/12/03 00:40:46;;;;;;;;;6.75;6.75;;;;;1.75;91.73;100928.38;5053288;28;11443;-70
2021/12/03 00:43:12;;;;;;;;;7.00;4.00;;;;;1.73;91.85;100936.47;5072333;28;11410;-70
2021/12/03 00:45:42;;;;;;;;;6.25;5.00;;;;;1.79;91.92;100941.31;5071628;28;11569;-71
2021/12/03 00:48:09;;;;;;;;;11.00;7.25;;;;;1.74;92.06;100934.69;5072487;28;11481;-72
2021/12/03 00:50:35;;;;;;;;;9.00;8.25;;;;;1.71;91.89;100940.25;5057319;28;11580;-71
2021/12/03 00:53:02;;;;;;;;;6.75;6.25;;;;;1.70;92.21;100939.41;5070743;28;11505;-71
2021/12/03 00:55:31;;;;;;;;;8.75;8.50;;;;;1.71;92.60;100930.41;5072304;28;12277;-71
2021/12/03 00:57:58;;;;;;;;;13.25;8.00;;;;;1.68;92.71;100928.00;5071461;28;11426;-69
2021/12/03 01:00:28;;;;;;;;;8.25;8.25;;;;;1.71;92.74;100927.75;5071438;28;11589;-70
2021/12/03 01:02:58;;;;;;;;;8.00;8.00;;;;;1.71;92.92;100929.56;5072198;28;11485;-71
2021/12/03 01:05:25;;;;;;;;;9.75;9.75;;;;;1.66;92.94;100929.97;5072009;28;11444;-70
2021/12/03 01:07:52;;;;;;;;;11.50;11.50;;;;;1.71;93.27;100927.75;5064403;28;11550;-70
2021/12/03 01:10:20;;;;;;;;;8.00;6.50;;;;;1.70;93.34;100923.38;5072035;28;11497;-70
2021/12/03 01:12:47;;;;;;;;;10.50;9.00;;;;;1.69;93.47;100921.69;5071246;28;11407;-70
2021/12/03 01:15:18;;;;;;;;;7.00;7.00;;;;;1.70;93.48;100914.53;5071933;28;11557;-69
2021/12/03 01:17:45;;;;;;;;;10.50;7.00;;;;;1.70;93.67;100914.53;5070663;28;11421;-69
2021/12/03 01:20:13;;;;;;;;;9.00;7.50;;;;;1.72;93.59;100910.75;5070949;28;11425;-70
2021/12/03 01:22:42;;;;;;;;;9.00;9.00;;;;;1.71;93.65;100902.88;5058776;28;11503;-71
2021/12/03 01:25:10;;;;;;;;;10.75;10.75;;;;;1.72;93.71;100904.56;5067081;28;11472;-70
2021/12/03 01:27:37;;;;;;;;;5.50;5.50;;;;;1.72;93.83;100907.25;5051323;28;11480;-70
2021/12/03 01:30:08;;;;;;;;;8.75;8.75;;;;;1.75;94.01;100912.34;5051603;28;11466;-70
2021/12/03 01:32:35;;;;;;;;;7.25;7.25;;;;;1.75;93.85;100917.69;5066973;28;11520;-70
2021/12/03 01:35:02;;;;;;;;;8.50;8.25;;;;;1.78;94.05;100910.25;5055734;28;11588;-70
2021/12/03 01:37:28;;;;;;;;;8.25;6.50;;;;;1.80;94.14;100923.47;5069284;28;11422;-70
2021/12/03 01:39:56;;;;;;;;;9.25;8.25;;;;;1.73;93.81;100927.63;5069917;28;11536;-69
2021/12/03 01:42:23;;;;;;;;;9.75;9.00;;;;;1.76;94.05;100925.56;5070830;28;11528;-69
2021/12/03 01:44:50;;;;;;;;;9.50;7.00;;;;;1.78;94.24;100920.94;5067070;28;11578;-69
2021/12/03 01:47:16;;;;;;;;;7.00;7.00;;;;;1.84;94.25;100924.91;5052447;28;11467;-70
2021/12/03 01:49:42;;;;;;;;;11.75;10.00;;;;;1.80;93.98;100926.13;5060878;28;11679;-70
2021/12/03 01:52:09;;;;;;;;;8.25;7.00;;;;;1.81;94.42;100930.50;5071818;28;11494;-71
2021/12/03 01:54:36;;;;;;;;;7.00;7.00;;;;;1.80;94.28;100928.81;5070859;28;11429;-68
2021/12/03 01:57:02;;;;;;;;;12.00;7.50;;;;;1.81;94.38;100926.00;5056449;28;12238;-70
2021/12/03 01:59:29;;;;;;;;;7.25;7.25;;;;;1.80;94.60;100927.00;5051323;28;11664;-71
2021/12/03 02:01:55;;;;;;;;;6.25;6.25;;;;;1.81;94.62;100918.00;5051911;28;11538;-70
2021/12/03 02:04:22;;;;;;;;;9.50;9.00;;;;;1.80;94.50;100916.31;5062421;28;11457;-69
2021/12/03 02:06:48;;;;;;;;;9.00;9.00;;;;;1.78;94.42;100901.41;5071771;28;12197;-70
2021/12/03 02:09:15;;;;;;;;;8.00;8.00;;;;;1.80;94.61;100905.63;5069818;28;11538;-72
2021/12/03 02:11:41;;;;;;;;;8.25;7.75;;;;;1.80;94.48;100900.28;5069174;28;11424;-69
2021/12/03 02:14:08;;;;;;;;;8.25;7.50;;;;;1.80;94.61;100902.97;5064066;28;11557;-71
2021/12/03 02:16:34;;;;;;;;;5.25;4.00;;;;;1.78;94.47;100912.09;5066866;28;11536;-71
2021/12/03 02:19:01;;;;;;;;;6.00;5.00;;;;;1.79;94.41;100917.28;5070601;28;11538;-71
2021/12/03 02:21:28;;;;;;;;;7.25;5.25;;;;;1.85;94.73;100903.41;5070466;28;11486;-72
2021/12/03 02:23:56;;;;;;;;;7.00;7.00;;;;;1.90;94.60;100903.00;5068744;28;11593;-71
2021/12/03 02:26:23;;;;;;;;;5.25;5.25;;;;;1.90;94.60;100899.50;5051750;28;11428;-71
2021/12/03 02:28:52;;;;;;;;;3.75;3.75;;;;;1.88;94.33;100896.97;5062406;28;12141;-72
2021/12/03 02:31:22;;;;;;;;;8.00;8.00;;;;;1.92;94.27;100895.72;5070394;28;11419;-70
2021/12/03 02:33:49;;;;;;;;;5.25;4.75;;;;;1.93;94.45;100896.56;5068975;28;11408;-73
2021/12/03 02:36:16;;;;;;;;;4.00;4.00;;;;;1.95;94.47;100884.78;5069796;28;11439;-71
2021/12/03 02:38:44;;;;;;;;;7.00;7.00;;;;;1.97;94.42;100882.81;5052913;28;11430;-71
2021/12/03 02:41:11;;;;;;;;;4.00;4.00;;;;;2.01;94.17;100888.75;5059639;28;11440;-70
2021/12/03 02:43:39;;;;;;;;;8.25;6.00;;;;;1.99;94.22;100880.88;5067310;28;11442;-70
2021/12/03 02:46:05;;;;;;;;;5.75;5.50;;;;;1.99;94.13;100875.53;5069060;28;12276;-69
2021/12/03 02:48:35;;;;;;;;;7.50;5.50;;;;;2.02;94.41;100883.28;5068700;28;11429;-70
2021/12/03 02:51:04;;;;;;;;;8.00;3.50;;;;;2.05;94.33;100883.00;5062395;28;11533;-69
2021/12/03 02:53:30;;;;;;;;;5.00;5.00;;;;;2.09;94.32;100894.25;5069987;28;11504;-70
2021/12/03 02:55:57;;;;;;;;;7.00;6.75;;;;;2.09;94.35;100894.25;5061836;28;11556;-70
2021/12/03 02:58:23;;;;;;;;;5.25;5.25;;;;;2.10;94.32;100887.94;5048662;28;11427;-69
2021/12/03 03:00:51;;;;;;;;;4.25;4.00;;;;;2.08;94.23;100880.06;5061720;28;11546;-69
2021/12/03 03:03:18;;;;;;;;;5.00;5.00;;;;;2.08;94.15;100884.56;5068231;28;11424;-69
2021/12/03 03:05:56;;;;;;;;;7.00;7.00;;;;;2.08;94.26;100879.22;5069221;28;11460;-70
2021/12/03 03:08:23;;;;;;;;;7.50;5.25;;;;;2.09;94.19;100881.75;5065528;28;11465;-70
2021/12/03 03:10:51;;;;;;;;;7.75;5.00;;;;;2.12;94.45;100888.66;5066666;28;11512;-70
2021/12/03 03:13:18;;;;;;;;;3.00;3.00;;;;;2.08;94.39;100876.56;5069623;28;11485;-68
2021/12/03 03:15:45;;;;;;;;;7.75;4.00;;;;;2.05;94.29;100874.16;5069908;28;11462;-69
2021/12/03 03:18:19;;;;;;;;;7.25;5.50;;;;;2.05;94.50;100875.00;5069951;28;11534;-69
2021/12/03 03:20:49;;;;;;;;;5.75;5.75;;;;;2.08;94.61;100872.06;5056229;28;11429;-70
2021/12/03 03:23:17;;;;;;;;;8.75;7.25;;;;;2.07;94.77;100861.50;5049419;28;11514;-70
2021/12/03 03:25:45;;;;;;;;;6.00;6.00;;;;;2.08;94.68;100872.06;5061680;28;12108;-69
2021/12/03 03:28:13;;;;;;;;;6.75;6.75;;;;;2.11;94.81;100860.25;5069164;28;11447;-70
2021/12/03 03:30:42;;;;;;;;;7.00;7.00;;;;;2.12;95.04;100853.94;5071010;28;11489;-70
2021/12/03 03:33:09;;;;;;;;;6.00;6.00;;;;;2.14;95.04;100847.47;5070501;28;11559;-69
2021/12/03 03:35:36;;;;;;;;;5.00;5.00;;;;;2.14;95.27;100835.97;5069295;28;11401;-70
2021/12/03 03:38:03;;;;;;;;;6.00;6.00;;;;;2.15;95.43;100837.66;5064559;28;12145;-69
2021/12/03 03:40:30;;;;;;;;;8.75;8.00;;;;;2.24;95.74;100836.00;5069329;28;12194;-70
2021/12/03 03:42:59;;;;;;;;;5.00;5.00;;;;;2.24;95.54;100833.34;5050386;28;11417;-69
2021/12/03 03:45:26;;;;;;;;;6.25;5.75;;;;;2.25;95.67;100835.03;5049798;28;11541;-70
2021/12/03 03:47:53;;;;;;;;;6.00;6.00;;;;;2.26;95.79;100821.53;5054766;28;11581;-70
2021/12/03 03:50:20;;;;;;;;;5.75;5.75;;;;;2.33;95.69;100821.81;5069849;28;11427;-70
2021/12/03 03:52:48;;;;;;;;;6.25;5.00;;;;;2.32;95.63;100825.47;5068611;28;11435;-70
2021/12/03 03:55:17;;;;;;;;;5.00;5.00;;;;;2.37;95.58;100824.09;5069577;28;12146;-68
2021/12/03 03:57:45;;;;;;;;;4.00;4.00;;;;;2.38;95.53;100832.94;5069054;28;11536;-70
2021/12/03 04:00:16;;;;;;;;;7.00;4.25;;;;;2.38;95.32;100824.94;5069610;28;11504;-71
2021/12/03 04:02:44;;;;;;;;;7.25;7.00;;;;;2.36;95.14;100827.75;5062440;28;11436;-70
2021/12/03 04:05:11;;;;;;;;;7.00;5.25;;;;;2.33;95.02;100825.34;5067614;28;11435;-70
2021/12/03 04:07:39;;;;;;;;;4.75;4.75;;;;;2.36;94.94;100829.56;5062741;28;11437;-72
2021/12/03 04:10:07;;;;;;;;;6.50;5.00;;;;;2.37;94.98;100813.41;5058318;28;11552;-69
2021/12/03 04:12:35;;;;;;;;;6.00;6.00;;;;;2.34;94.67;100813.69;5069444;28;12271;-70
2021/12/03 04:15:03;;;;;;;;;6.25;6.25;;;;;2.37;94.98;100809.88;5050568;28;11548;-69
2021/12/03 04:17:31;;;;;;;;;8.00;4.00;;;;;2.37;95.17;100816.06;5049285;28;11443;-70
2021/12/03 04:19:57;;;;;;;;;1.25;1.25;;;;;2.41;95.01;100811.28;5051491;28;11482;-70
2021/12/03 04:22:24;;;;;;;;;6.25;5.75;;;;;2.40;94.80;100814.94;5069141;28;11471;-70
2021/12/03 04:24:54;;;;;;;;;2.25;2.25;;;;;2.38;95.20;100801.72;5067500;28;11417;-70
2021/12/03 04:27:20;;;;;;;;;4.00;4.00;;;;;2.43;95.43;100803.97;5053501;28;11437;-69
2021/12/03 04:29:47;;;;;;;;;1.50;1.50;;;;;2.41;95.42;100809.47;5058323;28;11523;-70
2021/12/03 04:32:14;;;;;;;;;2.50;2.50;;;;;2.44;95.71;100809.19;5070569;28;11449;-71
2021/12/03 04:34:41;;;;;;;;;1.00;1.00;;;;;2.45;95.53;100816.22;5070648;28;11545;-70
2021/12/03 04:37:08;;;;;;;;;4.00;4.00;;;;;2.48;95.65;100815.13;5072548;28;11419;-71
2021/12/03 04:39:34;;;;;;;;;2.00;2.00;;;;;2.54;95.88;100817.25;5072808;28;11443;-71
2021/12/03 04:42:01;;;;;;;;;2.75;1.75;;;;;2.55;95.77;100821.59;5058810;28;11511;-70
2021/12/03 04:44:27;;;;;;;;;1.00;1.00;;;;;2.61;96.05;100815.69;5052529;28;12288;-71
2021/12/03 04:46:54;;;;;;;;;2.00;2.00;;;;;2.62;96.18;100817.38;5070585;28;11429;-71
2021/12/03 04:49:20;;;;;;;;;1.25;1.25;;;;;2.66;96.83;100818.78;5071185;28;11433;-69
2021/12/03 04:51:47;;;;;;;;;1.00;1.00;;;;;2.75;97.39;100798.44;5072395;28;11417;-70
2021/12/03 04:54:13;;;;;;;;;0.00;0.00;;;;;2.80;97.74;100790.81;5072482;28;11440;-70
2021/12/03 04:56:40;;;;;;;;;1.00;1.00;;;;;2.82;97.85;100782.66;5071348;28;12269;-70
2021/12/03 04:59:06;;;;;;;;;1.00;1.00;;;;;2.84;97.85;100784.22;5052250;28;11511;-71
2021/12/03 05:01:33;;;;;;;;;0.75;0.75;;;;;2.84;98.14;100784.22;5057921;28;11419;-69
2021/12/03 05:04:00;;;;;;;;;1.00;0.75;;;;;2.84;98.21;100786.03;5071926;28;11425;-70
2021/12/03 05:06:31;;;;;;;;;1.00;0.00;;;;;2.84;98.37;100776.19;5070662;28;12157;-71
2021/12/03 05:08:58;;;;;;;;;1.00;1.00;;;;;2.88;98.50;100790.13;5071146;28;11439;-70
2021/12/03 05:11:24;;;;;;;;;1.00;1.00;;;;;2.89;98.97;100784.63;5072285;28;12182;-71
2021/12/03 05:13:51;;;;;;;;;0.50;0.50;;;;;2.91;98.67;100782.66;5072230;28;12115;-71
2021/12/03 05:16:17;;;;;;;;;0.00;0.00;;;;;2.91;98.84;100776.47;5070679;28;11177;-71
2021/12/03 05:18:48;;;;;;;;;0.00;0.00;;;;;2.90;98.76;100775.63;5071757;28;11422;-70
2021/12/03 05:21:14;;;;;;;;;0.00;0.00;;;;;2.92;99.12;100786.16;5063689;28;11972;-71
2021/12/03 05:23:41;;;;;;;;;0.00;0.00;;;;;2.92;99.26;100787.00;5070888;28;11205;-70
2021/12/03 05:26:07;;;;;;;;;1.00;1.00;;;;;2.92;99.28;100784.34;5061434;28;11436;-70
2021/12/03 05:28:33;;;;;;;;;1.00;0.50;;;;;2.93;99.61;100780.69;5069799;28;11558;-69
2021/12/03 05:31:00;;;;;;;;;2.25;1.00;;;;;2.95;99.84;100778.69;5071707;28;11424;-70
2021/12/03 05:33:26;;;;;;;;;2.00;1.00;;;;;2.99;99.90;100774.78;5071742;28;12260;-70
2021/12/03 05:35:53;;;;;;;;;1.00;1.00;;;;;2.99;99.92;100769.44;5071830;28;11476;-71
2021/12/03 05:38:19;;;;;;;;;1.00;1.00;;;;;2.99;99.62;100763.25;5059185;28;11440;-70
2021/12/03 05:40:47;;;;;;;;;4.00;2.00;;;;;2.98;99.67;100758.88;5069257;28;11455;-71
2021/12/03 05:43:15;;;;;;;;;2.00;2.00;;;;;2.97;99.73;100759.84;5071158;28;11451;-70
2021/12/03 05:45:42;;;;;;;;;1.25;1.00;;;;;2.97;99.54;100766.03;5071341;28;11389;-71
2021/12/03 05:48:08;;;;;;;;;3.25;1.75;;;;;2.92;99.39;100754.94;5071033;28;12390;-70
2021/12/03 05:50:35;;;;;;;;;1.50;1.00;;;;;2.96;99.17;100752.81;5071465;28;11438;-70
2021/12/03 05:53:01;;;;;;;;;1.00;1.00;;;;;2.95;99.14;100754.63;5064171;28;11439;-71
2021/12/03 05:55:28;;;;;;;;;0.00;0.00;;;;;2.98;98.99;100750.88;5069472;28;11401;-71
2021/12/03 05:57:55;;;;;;;;;1.75;1.75;;;;;3.00;98.91;100749.72;5070944;28;11542;-70
2021/12/03 06:00:29;;;;;;;;;4.75;1.75;;;;;2.99;98.77;100752.56;5069305;28;11481;-70
2021/12/03 06:02:57;;;;;;;;;2.00;2.00;;;;;3.01;98.67;100755.94;5070072;28;11468;-71
2021/12/03 06:05:26;;;;;;;;;5.00;2.00;;;;;2.97;98.75;100747.31;5070295;28;11447;-70
2021/12/03 06:07:53;;;;;;;;;2.00;2.00;;;;;2.98;98.89;100748.19;5070551;28;11598;-70
2021/12/03 06:10:19;;;;;;;;;4.75;4.00;;;;;2.94;99.00;100747.59;5062949;28;12113;-70
2021/12/03 06:12:47;;;;;;;;;5.75;1.00;;;;;2.93;98.96;100750.41;5060796;28;11418;-70
2021/12/03 06:15:14;;;;;;;;;1.75;1.75;;;;;2.94;99.21;100749.44;5061138;28;11590;-69
2021/12/03 06:17:41;;;;;;;;;4.75;4.25;;;;;2.92;99.37;100741.56;5059310;28;12238;-69
2021/12/03 06:20:09;;;;;;;;;2.00;2.00;;;;;2.94;99.65;100738.75;5064971;28;11447;-69
2021/12/03 06:22:36;;;;;;;;;2.75;2.75;;;;;2.99;99.73;100742.69;5070656;28;11447;-69
2021/12/03 06:25:06;;;;;;;;;2.25;2.25;;;;;3.03;99.72;100741.41;5069248;28;11438;-69
2021/12/03 06:27:33;;;;;;;;;2.25;2.25;;;;;3.00;99.55;100736.38;5068398;28;11578;-70
2021/12/03 06:30:00;;;;;;;;;4.75;4.00;;;;;3.02;99.68;100737.06;5070354;28;11426;-70
2021/12/03 06:32:27;;;;;;;;;1.75;1.75;;;;;3.08;99.96;100744.50;5052348;28;11454;-70
2021/12/03 06:34:53;;;;;;;;;3.50;3.50;;;;;3.10;100.00;100733.66;5050710;28;11595;-68
2021/12/03 06:37:20;;;;;;;;;5.50;4.00;;;;;3.08;99.83;100730.28;5050158;28;11504;-70
2021/12/03 06:39:50;;;;;;;;;5.50;4.00;;;;;3.08;100.00;100735.63;5060341;28;11515;-67
2021/12/03 06:42:16;;;;;;;;;7.00;4.25;;;;;3.13;100.00;100740.56;5070183;28;11461;-69
2021/12/03 06:44:43;;;;;;;;;5.25;5.00;;;;;3.14;100.00;100742.25;5070312;28;11453;-68
2021/12/03 06:47:09;;;;;;;;;3.25;2.00;;;;;3.13;100.00;100741.41;5069762;28;11455;-69
2021/12/03 06:49:36;;;;;;;;;5.00;4.50;;;;;3.16;100.00;100730.41;5069823;28;11561;-68
2021/12/03 06:52:10;;;;;;;;;3.75;3.75;;;;;3.15;100.00;100731.41;5059918;28;11446;-69
2021/12/03 06:54:36;;;;;;;;;6.75;4.75;;;;;3.21;100.00;100730.81;5064817;28;11492;-69
2021/12/03 06:57:06;;;;;;;;;5.25;4.25;;;;;3.22;100.00;100732.53;5069148;28;11551;-69
2021/12/03 06:59:34;;;;;;;;;5.50;5.00;;;;;3.20;99.95;100729.13;5070234;28;11404;-67
2021/12/03 07:02:01;;;;;;;;;9.00;6.00;;;;;3.22;99.91;100721.81;5068883;28;11441;-69
2021/12/03 07:04:28;;;;;;;;;4.00;2.00;;;;;3.22;99.97;100720.94;5069749;28;11525;-68
2021/12/03 07:06:55;;;;;;;;;3.00;3.00;;;;;3.17;99.95;100718.72;5062949;28;11436;-69
2021/12/03 07:09:21;;;;;;;;;8.00;4.00;;;;;3.25;99.91;100723.38;5055774;28;12137;-70
2021/12/03 07:11:48;;;;;;;;;4.50;3.50;;;;;3.27;99.65;100730.25;5068683;28;11464;-68
2021/12/03 07:14:14;;;;;;;;;5.75;5.75;;;;;3.26;99.19;100733.06;5068182;28;11451;-68
2021/12/03 07:16:41;;;;;;;;;2.25;2.25;;;;;3.31;99.35;100734.31;5060889;28;11422;-71
2021/12/03 07:19:08;;;;;;;;;4.75;4.75;;;;;3.34;99.14;100723.31;5069656;28;11544;-68
2021/12/03 07:21:34;;;;;;;;;4.50;1.75;;;;;3.36;98.77;100726.69;5054858;28;11409;-67
2021/12/03 07:24:01;;;;;;;;;4.00;4.00;;;;;3.39;98.42;100713.03;5050119;28;11418;-70
2021/12/03 07:26:28;;;;;;;;;2.00;1.00;;;;;3.38;98.10;100713.16;5054315;28;11410;-69
2021/12/03 07:28:55;;;;;;;;;4.00;3.00;;;;;3.41;97.80;100704.84;5062787;28;11432;-71
2021/12/03 07:31:21;;;;;;;;;4.00;4.00;;;;;3.44;97.58;100699.19;5068188;28;11576;-70
2021/12/03 07:33:49;;;;;;;;;5.75;4.00;;;;;3.42;97.42;100706.53;5068789;28;11188;-70
2021/12/03 07:36:15;;;;;;;;;4.50;4.50;;;;;3.46;97.19;100705.25;5069749;28;11399;-70
2021/12/03 07:38:42;;;;;;;;;4.00;1.75;;;;;3.40;96.66;100689.78;5068737;28;11542;-70
2021/12/03 07:41:08;;;;;;;;;6.50;5.50;;;;;3.44;96.61;100693.84;5064000;28;11432;-70
2021/12/03 07:43:35;;;;;;;;;4.50;4.50;;;;;3.60;97.11;100694.06;5065534;28;11495;-70
2021/12/03 07:46:02;;;;;;;;;3.50;3.50;;;;;3.53;96.26;100692.16;5061949;28;11161;-71
2021/12/03 07:48:29;;;;;;;;;4.25;4.25;;;;;3.48;95.96;100679.22;5061687;28;11556;-71
2021/12/03 07:50:57;;;;;;;;;4.00;4.00;;;;;3.51;95.59;100686.09;5067119;28;11316;-71
2021/12/03 07:53:24;;;;;;;;;7.50;5.00;;;;;3.51;95.32;100678.06;5068534;28;11447;-70
2021/12/03 07:55:53;;;;;;;;;7.50;5.50;;;;;3.54;95.21;100681.28;5061998;28;11560;-71
2021/12/03 07:58:20;;;;;;;;;7.75;6.00;;;;;3.54;94.83;100669.75;5068903;28;12169;-71
2021/12/03 08:00:48;;;;;;;;;5.50;4.25;;;;;3.51;94.61;100664.69;5049189;28;11518;-70
2021/12/03 08:03:16;;;;;;;;;5.50;4.75;;;;;3.49;94.91;100672.03;5066306;28;11404;-70
2021/12/03 08:05:44;;;;;;;;;5.00;4.50;;;;;3.47;94.57;100680.22;5068991;28;11442;-70
2021/12/03 08:08:10;;;;;;;;;7.50;4.75;;;;;3.49;93.77;100685.41;5072039;28;11439;-71
2021/12/03 08:10:37;;;;;;;;;4.25;4.25;;;;;3.48;93.31;100667.66;5071563;28;11565;-69
2021/12/03 08:13:03;;;;;;;;;5.50;5.00;;;;;3.53;93.36;100668.06;5064400;28;11432;-70
2021/12/03 08:15:31;;;;;;;;;10.00;6.50;;;;;3.51;92.90;100662.84;5055653;28;11423;-70
2021/12/03 08:17:57;;;;;;;;;8.00;4.00;;;;;3.48;92.21;100662.31;5055778;28;11513;-69
2021/12/03 08:20:24;;;;;;;;;4.00;4.00;;;;;3.47;91.76;100658.78;5069169;28;11197;-70
2021/12/03 08:22:50;;;;;;;;;6.50;5.25;;;;;3.49;91.60;100655.97;5064368;28;11423;-70
2021/12/03 08:25:17;;;;;;;;;6.25;2.50;;;;;3.50;91.45;100655.81;5066906;28;11439;-70
2021/12/03 08:27:44;;;;;;;;;8.00;5.50;;;;;3.48;91.60;100657.81;5062949;28;11505;-70
2021/12/03 08:30:13;;;;;;;;;4.00;4.00;;;;;3.49;91.52;100648.78;5059849;28;12181;-71
2021/12/03 08:32:42;;;;;;;;;10.25;5.25;;;;;3.49;91.60;100648.78;5060805;28;11435;-69
2021/12/03 08:35:09;;;;;;;;;7.00;7.00;;;;;3.48;91.37;100644.41;5069788;28;11472;-70
2021/12/03 08:37:37;;;;;;;;;10.00;6.00;;;;;3.47;90.69;100650.75;5066449;28;11457;-70
2021/12/03 08:40:05;;;;;;;;;10.75;8.00;;;;;3.45;90.69;100655.41;5067091;28;11477;-69
2021/12/03 08:42:32;;;;;;;;;12.25;8.75;;;;;3.46;90.10;100648.22;5068722;28;11426;-68
2021/12/03 08:44:59;;;;;;;;;4.75;4.75;;;;;3.47;89.81;100649.88;5069383;28;11542;-69
2021/12/03 08:47:26;;;;;;;;;7.00;4.00;;;;;3.46;89.79;100642.84;5067390;28;11583;-70
2021/12/03 08:49:55;;;;;;;;;6.50;5.75;;;;;3.43;90.30;100649.34;5069171;28;11444;-71
2021/12/03 08:55:25;;;;;;;;;6.50;6.25;;;;;3.39;89.29;100656.00;5018921;28;11529;-69
2021/12/03 08:57:51;;;;;;;;;6.50;6.50;;;;;3.37;89.29;100649.94;5052769;28;11519;-69
2021/12/03 09:00:21;;;;;;;;;11.00;7.00;;;;;3.39;89.71;100640.78;5065897;28;11458;-70
2021/12/03 09:02:48;;;;;;;;;10.75;7.00;;;;;3.36;89.42;100643.75;5062250;28;11603;-70
2021/12/03 09:05:16;;;;;;;;;5.25;4.25;;;;;3.39;89.13;100642.63;5063329;28;11429;-68
2021/12/03 09:07:43;;;;;;;;;4.50;4.50;;;;;3.42;88.92;100641.47;5059818;28;11447;-69
2021/12/03 09:10:15;;;;;;;;;6.25;6.25;;;;;3.40;89.03;100633.59;5061754;28;11455;-69
2021/12/03 09:12:42;;;;;;;;;5.00;5.00;;;;;3.42;89.05;100634.28;5062925;28;11491;-68
2021/12/03 09:15:12;;;;;;;;;7.00;5.50;;;;;3.46;88.86;100626.81;5061835;28;11444;-69
2021/12/03 09:20:30;;;;;;;;;9.00;6.50;;;;;3.49;88.55;100608.63;5063226;28;11445;-69
2021/12/03 09:23:07;;;;;;;;;4.50;4.00;;;;;3.57;88.49;100621.28;5059389;28;11457;-70
2021/12/03 09:25:43;;;;;;;;;9.00;7.75;;;;;3.60;88.25;100618.28;5063228;28;11541;-70
2021/12/03 09:28:12;;;;;;;;;5.00;2.50;;;;;3.58;87.45;100613.09;5060204;28;11550;-69
2021/12/03 09:30:41;;;;;;;;;6.75;4.00;;;;;3.64;87.89;100622.34;5071662;28;11446;-69
2021/12/03 09:33:12;;;;;;;;;4.25;4.25;;;;;3.66;87.66;100612.31;5057815;28;11428;-69
2021/12/03 09:35:43;;;;;;;;;7.00;6.00;;;;;3.68;87.67;100602.31;5061240;28;11400;-69
2021/12/03 09:38:10;;;;;;;;;5.00;4.25;;;;;3.66;86.85;100606.97;5058916;28;12650;-69
2021/12/03 09:40:38;;;;;;;;;5.00;3.25;;;;;3.66;86.99;100601.63;5063220;28;11509;-70
2021/12/03 09:43:06;;;;;;;;;2.25;2.25;;;;;3.66;86.95;100593.59;5060394;28;11521;-69
2021/12/03 09:45:33;;;;;;;;;1.25;1.25;;;;;3.64;86.17;100584.88;5060832;28;11252;-69
2021/12/03 09:48:05;;;;;;;;;5.00;4.00;;;;;3.64;86.45;100579.53;5061742;28;11533;-71
2021/12/03 09:50:31;;;;;;;;;4.25;3.50;;;;;3.69;87.09;100585.25;5061940;28;11610;-69
2021/12/03 09:53:26;;;;;;;;;6.00;6.00;;;;;3.67;86.64;100574.69;5058713;28;11413;-70
2021/12/03 09:55:53;;;;;;;;;5.00;5.00;;;;;3.70;86.32;100571.72;5060489;28;11553;-70
2021/12/03 09:58:43;;;;;;;;;4.75;3.50;;;;;3.71;86.14;100568.03;5060772;28;11426;-69
2021/12/03 10:01:14;;;;;;;;;3.25;1.75;;;;;4.38;90.31;100573.84;5061167;28;11436;-70
2021/12/03 10:04:06;;;;;;;;;3.50;3.50;;;;;4.03;85.47;100557.81;5059202;28;11409;-71
2021/12/03 10:07:51;;;;;;;;;0.75;0.75;;;;;3.89;85.34;100562.72;5058311;28;12275;-71
2021/12/03 10:10:17;;;;;;;;;4.25;1.75;;;;;3.87;86.18;100558.50;5061098;28;11029;-71
2021/12/03 10:15:29;;;;;;;;;0.50;0.50;;;;;3.90;85.84;100551.00;5061534;28;11090;-70
2021/12/03 10:18:09;;;;;;;;;2.00;2.00;;;;;3.89;85.69;100556.50;5058893;28;11882;-69
2021/12/03 10:20:49;;;;;;;;;2.50;2.50;;;;;3.90;85.52;100551.00;5059580;28;11837;-71
2021/12/03 10:36:59;;;;;;;;;3.00;1.50;;;;;3.91;86.37;100503.63;5064551;28;11593;-71
2021/12/03 11:12:48;;;;;;;;;8.75;7.25;;;;;3.64;95.02;100451.03;5058700;28;11449;-69
2021/12/03 11:46:10;;;;;;;;;4.50;4.50;;;;;3.77;91.99;100397.94;5059243;28;11449;-69
2021/12/03 11:59:45;;;;;;;;;6.50;5.00;;;;;3.95;89.49;100344.31;5062279;28;11554;-70
2021/12/03 12:39:17;;;;;;;;;6.50;6.50;;;;;4.20;88.59;100294.41;5059969;28;11583;-70
2021/12/03 12:48:07;;;;;;;;;8.00;8.00;;;;;4.20;88.99;100289.03;5077417;28;11488;-68
2021/12/03 13:14:45;;;;;;;;;7.75;7.00;;;;;4.41;88.11;100259.13;5065919;28;11171;-70
2021/12/03 13:43:55;;;;;;;;;9.50;8.00;;;;;4.33;90.14;100239.38;5064697;28;11416;-68
2021/12/03 14:44:11;;;;;;;;;14.25;13.25;;;;;4.28;95.91;100222.09;5067365;28;11599;-69
2021/12/03 14:47:07;;;;;;;;;12.00;12.00;;;;;4.28;96.01;100206.03;5058536;28;11471;-68
2021/12/03 14:52:44;;;;;;;;;8.50;8.50;;;;;4.29;96.49;100205.03;5063221;28;11588;-68
2021/12/03 14:55:10;;;;;;;;;15.50;12.75;;;;;4.30;96.67;100201.34;5065447;28;11223;-68
2021/12/03 14:57:47;;;;;;;;;10.00;7.25;;;;;4.27;97.00;100205.19;5067141;28;11494;-69
2021/12/03 15:06:00;;;;;;;;;17.50;14.50;;;;;4.25;97.59;100195.66;5057148;28;11479;-69
2021/12/03 15:08:36;;;;;;;;;12.50;11.00;;;;;4.26;97.92;100192.81;5051199;28;11438;-69
2021/12/03 15:17:50;;;;;;;;;15.00;13.00;;;;;4.22;98.46;100180.75;5053648;28;11623;-69
2021/12/03 15:20:29;;;;;;;;;13.50;12.00;;;;;4.20;99.02;100169.31;5056344;28;11483;-69
2021/12/03 15:33:44;;;;;;;;;11.75;8.75;;;;;4.28;99.20;100184.59;5052401;28;11519;-68
2021/12/03 15:35:58;;;;;;;;;11.75;10.50;;;;;4.27;99.15;100182.91;5046672;28;11458;-71
2021/12/03 15:38:40;;;;;;;;;13.75;13.00;;;;;4.30;99.06;100169.19;5054363;28;11512;-71
2021/12/03 16:10:20;;;;;;;;;17.75;16.00;;;;;4.38;99.58;100136.19;5050298;28;11626;-68
2021/12/03 16:16:04;;;;;;;;;16.75;12.75;;;;;4.32;99.61;100138.53;5055813;28;11462;-68
2021/12/03 16:23:47;;;;;;;;;26.25;18.50;;;;;4.40;99.74;100152.94;5051533;28;11605;-69
2021/12/03 16:52:51;;;;;;;;;30.00;25.50;;;;;4.60;100.00;100144.41;5057809;28;11600;-70
2021/12/03 16:55:18;;;;;;;;;31.75;27.25;;;;;4.49;100.00;100160.00;5057787;28;11661;-69
2021/12/03 16:57:49;;;;;;;;;30.00;28.50;;;;;4.46;100.00;100146.91;5062604;28;11522;-69
2021/12/03 17:00:28;;;;;;;;;27.25;25.25;;;;;4.45;100.00;100154.13;5058864;28;11509;-69
2021/12/03 17:03:03;;;;;;;;;25.75;24.00;;;;;4.45;100.00;100142.56;5071696;28;11580;-70
2021/12/03 17:44:28;;;;;;;;;23.00;23.00;;;;;4.51;100.00;100096.34;5051958;28;12294;-69
2021/12/03 17:51:14;;;;;;;;;24.75;17.00;;;;;4.60;99.77;100106.88;5055623;28;11629;-69
2021/12/03 17:56:16;;;;;;;;;25.50;22.75;;;;;4.61;99.59;100100.53;5067894;28;11523;-67
2021/12/03 17:58:52;;;;;;;;;29.50;27.50;;;;;4.61;99.46;100108.56;5057535;28;11608;-69
2021/12/03 18:01:37;;;;;;;;;31.50;25.00;;;;;4.65;99.58;100109.06;5059979;28;11539;-70
2021/12/03 18:04:09;;;;;;;;;28.75;26.00;;;;;4.69;99.65;100117.59;5068674;28;11511;-70